Aérodrome :
LOGIN :

S'inscrire | Disclaimer

   EN    FR    IT 

 










Légende :    VFR   VFR Marginal   IFR   IFR Intensif   IFR Très Intensif
Visi : 
Plafond : 
>= 8 km
>= 3000ft
5 à 8 km
1000 à 3000 ft
1500m à 5 km
500 à 1000 ft
800 à 1500m
200 à 500 ft
< 800m
< 200 ft
Symboles :   Orages  Brouillard  Fortes neiges  Fortes précipitations  Vent > 20 kt
SIGMETs :   Divers  Orages  Givrage  Turbulence  Onde Orograph.  Cendres Volcan.







- Altitude de l'aérodrome : 285 ft
- Code IATA : OZP


LEMO - Sevilla Moron

DERNIER METAR :
  • 290300Z 19005KT 9999 FEW045 15/14 Q1017 NOSIG

METARs EXPIRÉS :
  • 290200Z 19005KT 9999 FEW012 SCT016 16/14 Q1017 NOSIG
  • 290100Z 19006KT 9999 BKN013 BKN016 BKN021 17/14 Q1018 NOSIG

TAF TAF LEMO
Valide du 29 à 03h jusqu'au 29 à 12h UTC


290200Z 2903/2912 21007KT 9999 SCT020
PROB40
TEMPO 2903/2910 4000 BR BKN010
Pas de NOTAMs connus pour ce terrain.
3 SIGMETs publiés pour la FIR Madrid (LECM) :
 
Orages noyés dans la masse
LECM SIGMET 2 VALID 290400/290600 LEVA
LECM MADRID FIR/UIR EMBD TS OBS AT 0344Z N OF LINE N41 W00420 - N4040 W002 TOP FL320 STNR NC=
Orages noyés dans la masse
LECM SIGMET 15 VALID 282200/282400 LEVA
LECM MADRID FIR/UIR EMBD TS OBS AT 2144Z WI N4440 W00650 - N4240 W00740 - N4040 W00420 - N4330 W00150 - N4420 W004 TOP FL320 MOV N NC=
Orages noyés dans la masse
LECM SIGMET 1 VALID 290152/290400 LEVA
LECM MADRID FIR/UIR EMBD TS OBS AT 0152Z N OF LINE N4050 W005 - N4110 W00240 TOP FL320 MOV N NC=



MET'MAP, la Météo Aéronautique d'un coup d'oeil ! - Copyright ORBIFLY Décembre 2007 - Disclaimer

ORBIFLY MET'MAP TEAM :

Programmation & Développement : Alexandra Zaïnal
Conception & Développement : Baudouin d'Aumeries
Co-Programmation & Développement : Marc-Olivier Méhu
Soutien technique & logistique : Manuel Goepfert

Contact : metmap@orbifly.com




SOURCES & CREDITS :

   NOAA